Time;durP1;ratioP1;P1;durP2;ratioP2;P2;SDS_P1;SDS_P2;PMS_P1;PMS_P2;Temp;Humidity;BMP_temperature;BMP_pressure;BME280_temperature;BME280_humidity;BME280_pressure;Samples;Min_cycle;Max_cycle;Signal;HPM_P1;HPM_P2
2024/04/02 00:01:12;;;;;;;5.70;5.10;;;11.80;99.90;;;12.16;90.00;99998.13;5050105;28;20049;-66
2024/04/02 00:03:42;;;;;;;5.68;5.03;;;11.90;99.90;;;12.11;90.14;100002.66;5050391;28;20371;-64
2024/04/02 00:06:10;;;;;;;6.53;4.75;;;11.80;99.90;;;12.18;90.01;100001.59;5050607;28;20048;-63
2024/04/02 00:08:37;;;;;;;6.00;4.88;;;11.90;99.90;;;12.18;90.12;100001.59;5049321;28;20045;-64
2024/04/02 00:11:06;;;;;;;5.38;4.80;;;11.80;99.90;;;12.06;89.90;99976.28;5049669;28;20045;-68
2024/04/02 00:13:34;;;;;;;5.85;5.00;;;11.80;99.90;;;12.16;89.92;99999.00;5049820;28;20114;-65
2024/04/02 00:16:03;;;;;;;5.57;4.90;;;11.80;99.90;;;12.20;89.75;99994.47;5049914;28;20049;-66
2024/04/02 00:18:29;;;;;;;5.15;4.60;;;11.90;99.90;;;12.16;89.72;100000.75;5049859;28;20037;-65
2024/04/02 00:21:01;;;;;;;5.28;4.78;;;11.80;99.90;;;12.17;89.79;100002.53;5049876;28;20095;-65
2024/04/02 00:23:28;;;;;;;6.50;4.60;;;11.80;99.90;;;12.16;89.74;100008.72;5049550;28;20387;-66
2024/04/02 00:26:00;;;;;;;6.30;4.75;;;11.80;99.90;;;12.17;89.56;100007.81;5049669;28;20045;-68
2024/04/02 00:28:28;;;;;;;4.93;4.53;;;11.80;99.90;;;12.15;89.59;100007.00;5049568;28;20041;-66
2024/04/02 00:31:00;;;;;;;5.15;4.75;;;11.80;99.90;;;12.18;89.33;100009.56;5049392;28;20049;-69
2024/04/02 00:33:26;;;;;;;4.88;4.47;;;11.80;99.90;;;12.16;88.98;100001.66;5049681;28;20051;-65
2024/04/02 00:36:01;;;;;;;6.30;4.63;;;11.80;99.90;;;12.14;88.68;100005.22;5049481;28;20037;-65
2024/04/02 00:38:27;;;;;;;6.45;4.75;;;11.80;99.90;;;12.16;88.55;100012.25;5049685;28;20045;-66
2024/04/02 00:40:55;;;;;;;5.10;4.40;;;11.80;99.90;;;12.19;88.41;100028.09;5049603;28;20059;-65
2024/04/02 00:43:21;;;;;;;5.53;4.40;;;11.80;99.90;;;12.21;88.35;100012.16;5049331;28;20054;-66
2024/04/02 00:45:50;;;;;;;5.05;4.53;;;11.90;99.90;;;12.20;87.98;100011.25;5049351;28;20049;-65
2024/04/02 00:48:17;;;;;;;8.07;4.97;;;11.90;99.90;;;12.22;88.19;100013.88;5049309;28;20049;-64
2024/04/02 00:50:45;;;;;;;5.72;4.70;;;11.80;99.90;;;12.18;87.93;100017.50;5049125;28;20052;-64
2024/04/02 00:53:12;;;;;;;5.20;4.70;;;11.90;99.90;;;12.15;88.04;100022.91;5049457;28;20055;-67
2024/04/02 00:55:43;;;;;;;5.10;4.60;;;11.80;99.90;;;12.15;88.12;100022.91;5049208;28;20041;-65
2024/04/02 00:58:10;;;;;;;5.30;4.63;;;11.80;99.90;;;12.10;88.06;100022.16;5049638;28;20047;-68
2024/04/02 01:00:39;;;;;;;5.45;4.82;;;11.70;99.90;;;12.13;88.02;100019.41;5049315;28;20048;-68
2024/04/02 01:03:07;;;;;;;6.45;5.20;;;11.80;99.90;;;12.11;88.00;100016.81;5049274;28;20127;-65
2024/04/02 01:05:37;;;;;;;5.32;4.40;;;11.80;99.90;;;12.14;87.80;100026.44;5049168;28;20120;-66
2024/04/02 01:08:04;;;;;;;;;;;11.80;99.90;;;11.32;87.69;99890.66;5049866;28;20055;-64
2024/04/02 01:10:32;;;;;;;6.60;5.47;;;11.80;99.90;;;12.15;87.70;100021.13;5049157;28;19925;-65
2024/04/02 01:12:59;;;;;;;6.88;5.35;;;11.80;99.90;;;12.16;87.61;100021.97;5049256;28;20078;-65
2024/04/02 01:15:27;;;;;;;5.68;5.07;;;11.80;99.90;;;12.12;87.37;100022.94;5049254;28;20398;-64
2024/04/02 01:17:54;;;;;;;5.50;5.00;;;11.80;99.90;;;12.12;87.40;100022.94;5049022;28;20120;-69
2024/04/02 01:20:23;;;;;;;5.57;5.07;;;11.80;99.90;;;12.12;87.06;100036.22;5050429;28;20045;-65
2024/04/02 01:22:50;;;;;;;7.03;5.07;;;11.80;99.90;;;12.08;87.22;100040.72;5053075;28;20049;-65
2024/04/02 01:25:21;;;;;;;5.50;5.00;;;11.70;99.90;;;12.07;87.27;100041.63;5052696;28;20045;-67
2024/04/02 01:27:48;;;;;;;7.95;5.15;;;11.70;99.90;;;12.05;87.34;100042.56;5052924;28;20059;-68
2024/04/02 01:30:15;;;;;;;6.22;5.00;;;11.70;99.90;;;12.00;87.10;100040.03;5052998;28;20416;-68
2024/04/02 01:32:42;;;;;;;5.65;5.00;;;11.70;99.90;;;12.02;87.18;100042.66;5053073;28;20057;-67
2024/04/02 01:35:10;;;;;;;5.22;4.72;;;11.70;99.90;;;11.98;87.32;100041.84;5052633;28;20091;-67
2024/04/02 01:37:36;;;;;;;5.53;4.93;;;11.60;99.90;;;11.97;87.46;100050.72;5052940;28;20464;-65
2024/04/02 01:40:05;;;;;;;5.32;4.90;;;11.60;99.90;;;11.94;87.51;100042.84;5052568;28;20040;-66
2024/04/02 01:42:32;;;;;;;5.75;4.60;;;11.60;99.90;;;11.89;87.78;100047.34;5052675;28;20087;-69
2024/04/02 01:45:00;;;;;;;6.63;4.90;;;11.50;99.90;;;11.85;87.97;100050.97;5052474;28;20096;-65
2024/04/02 01:47:27;;;;;;;7.50;4.70;;;11.50;99.90;;;11.82;88.23;100050.19;5052662;28;20057;-68
2024/04/02 01:49:54;;;;;;;7.57;4.80;;;11.50;99.90;;;11.70;88.79;100027.50;5052671;28;20044;-65
2024/04/02 01:52:21;;;;;;;4.90;4.50;;;11.50;99.90;;;11.79;88.79;100049.34;5052348;28;20045;-73
2024/04/02 01:54:48;;;;;;;5.68;4.80;;;11.40;99.90;;;11.82;89.22;100043.13;5052637;28;20076;-67
2024/04/02 01:57:14;;;;;;;6.72;5.18;;;11.50;99.90;;;11.83;89.34;100044.00;5052376;28;20094;-66
2024/04/02 01:59:44;;;;;;;5.28;4.78;;;11.50;99.90;;;11.72;89.55;100042.44;5052158;28;20501;-67
2024/04/02 02:02:11;;;;;;;5.95;4.68;;;11.40;99.90;;;11.78;89.98;100049.38;5052411;28;20041;-67
2024/04/02 02:04:39;;;;;;;5.80;4.90;;;11.50;99.90;;;11.74;90.21;100045.94;5052276;28;20094;-64
2024/04/02 02:07:05;;;;;;;6.22;5.00;;;11.40;99.90;;;11.66;90.51;100071.72;5052281;28;20041;-66
2024/04/02 02:09:32;;;;;;;7.15;5.05;;;11.40;99.90;;;11.64;91.01;100047.00;5052025;28;20502;-65
2024/04/02 02:11:59;;;;;;;5.13;4.63;;;11.40;99.90;;;11.65;91.39;100043.47;5051855;28;20040;-66
2024/04/02 02:14:26;;;;;;;4.90;4.50;;;11.40;99.90;;;11.65;91.48;100042.59;5052192;28;20056;-65
2024/04/02 02:16:54;;;;;;;5.80;4.80;;;11.30;99.90;;;11.66;91.76;100061.13;5052088;28;20558;-66
2024/04/02 02:19:21;;;;;;;10.82;5.32;;;11.30;99.90;;;11.66;91.70;100039.94;5051856;28;20049;-66
2024/04/02 02:21:47;;;;;;;6.65;4.68;;;11.30;99.90;;;11.60;91.79;100050.63;5051701;28;20604;-65
2024/04/02 02:24:15;;;;;;;5.43;4.60;;;11.30;99.90;;;11.49;92.15;100039.41;5051720;28;20505;-72
2024/04/02 02:26:41;;;;;;;5.93;4.95;;;11.30;99.90;;;11.47;92.55;100050.94;5051903;28;20048;-66
2024/04/02 02:29:08;;;;;;;5.63;5.03;;;11.20;99.90;;;11.51;92.75;100045.53;5051764;28;20037;-67
2024/04/02 02:31:36;;;;;;;5.40;4.90;;;11.20;99.90;;;11.50;92.80;100041.13;5050528;28;20051;-69
2024/04/02 02:34:05;;;;;;;7.78;5.10;;;11.20;99.90;;;11.49;93.13;100047.34;5051831;28;20123;-66
2024/04/02 02:36:31;;;;;;;5.97;5.30;;;11.20;99.90;;;11.44;93.20;100041.25;5052606;28;20045;-65
2024/04/02 02:39:04;;;;;;;6.75;4.80;;;11.20;99.90;;;11.45;93.43;100044.78;5053410;28;20091;-65
2024/04/02 02:41:30;;;;;;;6.90;5.30;;;11.10;99.90;;;11.43;93.61;100049.25;5053684;28;20057;-68
2024/04/02 02:43:58;;;;;;;5.78;5.28;;;11.10;99.90;;;11.36;93.88;100048.50;5053284;28;20072;-65
2024/04/02 02:46:25;;;;;;;7.63;5.22;;;11.10;99.90;;;11.32;94.35;100049.47;5053442;28;20041;-65
2024/04/02 02:48:52;;;;;;;7.25;5.57;;;11.00;99.90;;;11.36;94.21;100056.44;5052377;28;20063;-66
2024/04/02 02:51:20;;;;;;;7.20;5.63;;;11.10;99.90;;;11.38;94.41;100051.13;5053221;28;20060;-65
2024/04/02 02:53:47;;;;;;;9.20;5.32;;;11.00;99.90;;;11.41;94.39;100059.00;5053209;28;20127;-68
2024/04/02 02:56:14;;;;;;;7.63;5.38;;;11.10;99.90;;;11.38;94.25;100061.72;5053218;28;20099;-65
2024/04/02 02:58:42;;;;;;;8.32;5.10;;;11.00;99.90;;;11.27;94.37;100056.63;5053166;28;20397;-65
2024/04/02 03:01:08;;;;;;;8.25;5.60;;;11.00;99.90;;;11.27;94.80;100069.88;5053405;28;20040;-65
2024/04/02 03:03:36;;;;;;;6.78;5.65;;;11.00;99.90;;;11.21;95.27;100069.97;5052895;28;20041;-64
2024/04/02 03:06:02;;;;;;;7.93;5.28;;;10.90;99.90;;;11.28;95.20;100070.75;5053238;28;20452;-66
2024/04/02 03:08:31;;;;;;;6.38;5.43;;;11.00;99.90;;;11.29;95.21;100077.78;5052965;28;20045;-65
2024/04/02 03:11:03;;;;;;;6.38;5.22;;;11.00;99.90;;;11.30;95.33;100069.81;5052651;28;20132;-67
2024/04/02 03:13:31;;;;;;;7.13;5.93;;;11.00;99.90;;;11.23;95.26;100073.47;5053148;28;20041;-65
2024/04/02 03:15:57;;;;;;;7.88;5.40;;;11.00;99.90;;;11.18;95.58;100077.13;5052654;28;20041;-65
2024/04/02 03:18:25;;;;;;;6.32;5.72;;;10.90;99.90;;;11.18;95.73;100067.41;5052855;28;20037;-65
2024/04/02 03:20:51;;;;;;;7.60;5.50;;;10.90;99.90;;;11.20;95.81;100076.19;5052558;28;20094;-65
2024/04/02 03:23:20;;;;;;;6.90;5.80;;;10.90;99.90;;;11.17;95.88;100075.38;5052301;28;20555;-65
2024/04/02 03:25:53;;;;;;;8.10;6.00;;;10.90;99.90;;;11.16;96.38;100086.84;5052660;28;20436;-65
2024/04/02 03:28:21;;;;;;;7.82;5.32;;;10.90;99.90;;;11.15;96.29;100083.34;5052560;28;20047;-65
2024/04/02 03:30:47;;;;;;;7.20;5.53;;;10.80;99.90;;;11.19;96.54;100095.59;5052391;28;20045;-65
2024/04/02 03:33:15;;;;;;;11.00;5.72;;;10.90;99.90;;;11.24;96.36;100099.06;5052349;28;20048;-65
2024/04/02 03:35:42;;;;;;;6.30;5.40;;;10.90;99.90;;;11.22;96.06;100102.63;5052221;28;20056;-65
2024/04/02 03:38:09;;;;;;;9.18;5.78;;;10.90;99.90;;;11.15;96.62;100099.22;5052504;28;20120;-64
2024/04/02 03:40:39;;;;;;;6.88;5.75;;;10.80;99.90;;;11.16;96.59;100094.81;5052237;28;20075;-66
2024/04/02 03:43:08;;;;;;;8.27;5.90;;;10.90;99.90;;;11.18;96.56;100101.81;5035423;28;20157;-65
2024/04/02 03:45:39;;;;;;;8.82;5.70;;;10.90;99.90;;;11.15;96.59;100093.06;5052091;28;20043;-65
2024/04/02 03:48:07;;;;;;;7.50;5.38;;;10.90;99.90;;;11.19;96.42;100108.00;5052107;28;20044;-65
2024/04/02 03:50:35;;;;;;;8.02;5.35;;;10.90;99.90;;;11.12;96.58;100104.56;5052017;28;20059;-65
2024/04/02 03:53:02;;;;;;;7.65;6.03;;;10.90;99.90;;;11.17;96.71;100101.84;5051835;28;20041;-65
2024/04/02 03:55:33;;;;;;;8.63;5.90;;;10.90;99.90;;;10.37;96.50;99976.41;5051874;28;20037;-65
2024/04/02 03:58:01;;;;;;;7.63;5.60;;;10.90;99.90;;;11.09;97.08;100117.00;5051902;28;20041;-65
2024/04/02 04:00:29;;;;;;;11.50;5.45;;;10.80;99.90;;;11.11;97.10;100117.84;5052083;28;20041;-67
2024/04/02 04:02:56;;;;;;;8.02;5.53;;;10.80;99.90;;;11.10;97.09;100122.25;5051741;28;20048;-65
2024/04/02 04:05:23;;;;;;;7.43;5.18;;;10.80;99.90;;;11.09;97.56;100112.56;5051764;28;20037;-65
2024/04/02 04:07:50;;;;;;;8.50;5.78;;;10.80;99.90;;;11.18;97.70;100114.16;5051701;28;20065;-64
2024/04/02 04:10:17;;;;;;;9.88;5.65;;;10.80;99.90;;;11.11;97.35;100109.91;5051906;28;20398;-65
2024/04/02 04:12:46;;;;;;;8.27;5.40;;;10.80;99.90;;;11.13;97.61;100114.25;5051601;28;20045;-65
2024/04/02 04:15:12;;;;;;;10.02;6.35;;;10.80;99.90;;;11.05;97.83;100123.25;5051736;28;20136;-65
2024/04/02 04:17:41;;;;;;;9.55;5.93;;;10.80;99.90;;;11.09;97.84;100122.28;5051691;28;20044;-65
2024/04/02 04:20:08;;;;;;;8.00;5.30;;;10.80;99.90;;;11.11;97.78;100126.63;5051539;28;20041;-65
2024/04/02 04:22:36;;;;;;;8.63;5.43;;;10.80;99.90;;;11.11;98.02;100133.72;5051766;28;20045;-65
2024/04/02 04:25:04;;;;;;;9.65;5.30;;;10.80;99.90;;;10.96;98.52;100137.50;5051700;28;20132;-65
2024/04/02 04:27:33;;;;;;;7.20;5.57;;;10.70;99.90;;;11.05;99.10;100140.00;5051601;28;20131;-65
2024/04/02 04:30:00;;;;;;;6.55;5.40;;;10.70;99.90;;;10.82;98.80;100090.13;5051393;28;20041;-65
2024/04/02 04:32:28;;;;;;;9.98;5.75;;;10.70;99.90;;;10.99;99.12;100144.53;5051436;28;20375;-64
2024/04/02 04:34:56;;;;;;;11.82;5.55;;;10.70;99.90;;;11.04;99.00;100138.25;5051348;28;20060;-71
2024/04/02 04:37:23;;;;;;;9.45;5.53;;;10.70;99.90;;;10.96;99.28;100144.56;5051300;28;20049;-65
2024/04/02 04:39:49;;;;;;;9.50;5.13;;;10.70;99.90;;;10.94;99.31;100130.53;5051317;28;20041;-64
2024/04/02 04:42:17;;;;;;;11.05;5.65;;;10.70;99.90;;;10.88;99.71;100147.34;5051366;28;20072;-65
2024/04/02 04:44:44;;;;;;;6.55;5.22;;;10.60;99.90;;;10.89;99.74;100139.41;5051199;28;20037;-64
2024/04/02 04:47:12;;;;;;;7.70;5.22;;;10.60;99.90;;;10.93;99.76;100145.50;5051476;28;20540;-65
2024/04/02 04:49:38;;;;;;;12.82;5.78;;;10.60;99.90;;;10.86;99.73;100141.19;5051300;28;20092;-65
2024/04/02 04:52:09;;;;;;;8.80;5.43;;;10.60;99.90;;;10.93;99.65;100150.81;5051240;28;20045;-65
2024/04/02 04:54:36;;;;;;;8.95;5.00;;;10.60;99.90;;;10.77;99.50;100128.16;5045597;28;20042;-65
2024/04/02 04:57:03;;;;;;;10.90;5.03;;;10.60;99.90;;;10.93;99.84;100158.75;5035552;28;20437;-65
2024/04/02 04:59:29;;;;;;;10.68;5.10;;;10.60;99.90;;;10.94;100.00;100160.47;5035710;28;20053;-65
2024/04/02 05:01:57;;;;;;;7.47;4.95;;;10.60;99.90;;;10.87;99.70;100162.38;5018922;28;20140;-65
2024/04/02 05:04:23;;;;;;;9.27;5.28;;;10.60;99.90;;;10.92;100.00;100172.84;5035565;28;20083;-65
2024/04/02 05:06:52;;;;;;;9.10;4.97;;;10.60;99.90;;;10.93;100.00;100169.31;5035254;28;20048;-65
2024/04/02 05:09:20;;;;;;;9.15;6.00;;;10.60;99.90;;;10.97;100.00;100178.97;5035355;28;20038;-65
2024/04/02 05:11:48;;;;;;;10.15;5.55;;;10.70;99.90;;;10.95;100.00;100178.09;5034915;28;20046;-65
2024/04/02 05:14:14;;;;;;;11.25;5.47;;;10.70;99.90;;;10.89;100.00;100168.50;5035544;28;20045;-65
2024/04/02 05:16:42;;;;;;;9.18;5.72;;;10.70;99.90;;;10.96;100.00;100174.53;5035162;28;20046;-64
2024/04/02 05:19:09;;;;;;;7.82;5.03;;;10.60;99.90;;;11.03;100.00;100176.22;5034925;28;20046;-67
2024/04/02 05:21:36;;;;;;;9.10;5.38;;;10.70;99.90;;;11.07;100.00;100177.03;5034964;28;20128;-66
2024/04/02 05:24:03;;;;;;;11.90;5.70;;;10.80;99.90;;;11.10;100.00;100179.59;5035005;28;20445;-67
2024/04/02 05:26:32;;;;;;;11.00;5.18;;;10.80;99.90;;;11.11;100.00;100178.72;5018453;28;20414;-66
2024/04/02 05:28:58;;;;;;;9.90;5.38;;;10.80;99.90;;;11.08;100.00;100179.63;5034749;28;20796;-65
2024/04/02 05:31:26;;;;;;;12.82;5.55;;;10.80;99.90;;;10.98;100.00;100169.22;5034910;28;20056;-68
2024/04/02 05:33:52;;;;;;;9.57;5.40;;;10.80;99.90;;;11.00;100.00;100181.53;5034728;28;20049;-65
2024/04/02 05:36:20;;;;;;;10.77;5.40;;;10.70;99.90;;;10.95;100.00;100191.34;5034778;28;20401;-67
2024/04/02 05:38:46;;;;;;;11.60;5.53;;;10.70;99.90;;;11.06;100.00;100184.09;5034453;28;20038;-65
2024/04/02 05:41:13;;;;;;;9.25;5.07;;;10.70;99.90;;;11.13;100.00;100191.00;5034769;28;20053;-65
2024/04/02 05:43:43;;;;;;;11.32;5.47;;;10.80;99.90;;;11.16;100.00;100196.25;5034550;28;20042;-68
2024/04/02 05:46:11;;;;;;;12.95;5.43;;;10.90;99.90;;;11.09;100.00;100185.81;5034422;28;20068;-69
2024/04/02 05:48:37;;;;;;;11.50;5.43;;;10.90;99.90;;;11.03;100.00;100162.97;5520365;22;21247;-69
2024/04/02 05:51:05;;;;;;;9.63;5.45;;;10.90;99.90;;;11.17;100.00;100181.25;4995487;28;20041;-69
2024/04/02 05:53:31;;;;;;;10.20;5.15;;;10.90;99.90;;;11.21;100.00;100193.50;4997271;28;20092;-69
2024/04/02 05:55:59;;;;;;;11.15;5.47;;;10.90;99.90;;;11.30;100.00;100193.38;4997555;28;20400;-70
2024/04/02 05:58:26;;;;;;;11.13;5.47;;;11.00;99.90;;;11.51;100.00;100207.09;4997495;28;20118;-70
2024/04/02 06:01:04;;;;;;;9.95;5.40;;;11.10;99.90;;;11.61;100.00;100219.22;4997453;28;20046;-69
2024/04/02 06:03:30;;;;;;;11.45;5.75;;;11.30;99.90;;;11.61;100.00;100208.63;4997488;28;20041;-69
2024/04/02 06:05:57;;;;;;;10.52;5.22;;;11.40;99.90;;;11.54;100.00;100207.00;4997268;28;20041;-70
2024/04/02 06:08:24;;;;;;;9.98;5.07;;;11.30;99.90;;;11.50;100.00;100209.75;4997253;28;20553;-70
2024/04/02 06:10:51;;;;;;;11.90;5.13;;;11.30;99.90;;;11.56;100.00;100210.50;4997281;28;20103;-70
2024/04/02 06:13:17;;;;;;;7.95;4.63;;;11.30;99.90;;;11.54;100.00;100216.72;4997204;28;20044;-70
2024/04/02 06:15:45;;;;;;;14.85;5.75;;;11.30;99.90;;;11.54;100.00;100217.59;4997395;28;20407;-68
2024/04/02 06:18:13;;;;;;;10.70;5.13;;;11.30;99.90;;;11.50;100.00;100209.75;4997642;28;20092;-70
2024/04/02 06:20:40;;;;;;;11.85;5.50;;;11.30;99.90;;;11.39;100.00;100225.84;4997454;28;20506;-70
2024/04/02 06:23:07;;;;;;;11.55;5.55;;;11.10;99.90;;;11.53;100.00;100222.94;4997817;28;20089;-70
2024/04/02 06:25:34;;;;;;;9.90;5.25;;;11.20;99.90;;;11.55;100.00;100232.63;4997769;28;20092;-70
2024/04/02 06:28:00;;;;;;;12.38;5.45;;;11.30;99.90;;;11.50;100.00;100222.97;4997171;28;20136;-70
2024/04/02 06:30:28;;;;;;;11.43;5.30;;;11.20;99.90;;;11.50;100.00;100233.56;4997155;28;20054;-70
2024/04/02 06:32:54;;;;;;;13.38;5.28;;;11.20;99.90;;;11.44;100.00;100223.13;4996922;28;20052;-70
2024/04/02 06:35:23;;;;;;;11.48;5.30;;;11.20;99.90;;;11.47;100.00;100226.56;4997279;28;20042;-71
2024/04/02 06:37:49;;;;;;;13.00;5.35;;;11.20;99.90;;;11.44;100.00;100226.63;4997201;28;20092;-68
2024/04/02 06:40:17;;;;;;;12.55;5.30;;;11.10;99.90;;;11.54;100.00;100224.66;4997545;28;20052;-68
2024/04/02 06:42:44;;;;;;;14.10;5.60;;;11.20;99.90;;;11.57;100.00;100232.56;4997115;28;20534;-71
2024/04/02 06:45:11;;;;;;;18.73;6.45;;;11.30;99.90;;;11.55;100.00;100237.91;4996981;28;20446;-72
2024/04/02 06:47:38;;;;;;;11.82;5.13;;;11.30;99.90;;;11.59;100.00;100242.22;4996717;28;20048;-72
2024/04/02 06:50:06;;;;;;;15.15;5.78;;;11.30;99.90;;;11.52;100.00;100232.66;4996760;28;20053;-69
2024/04/02 06:52:33;;;;;;;21.83;6.10;;;11.30;99.90;;;11.49;100.00;100237.13;4996658;28;20389;-69
2024/04/02 06:55:01;;;;;;;12.52;5.57;;;11.20;99.90;;;11.53;100.00;100234.41;4996900;28;20081;-71
2024/04/02 06:57:27;;;;;;;17.27;6.20;;;11.20;99.90;;;11.54;100.00;100248.50;4996905;28;20041;-68
2024/04/02 06:59:55;;;;;;;17.52;6.15;;;11.30;99.90;;;11.65;100.00;100238.59;4996619;28;20050;-69
2024/04/02 07:02:22;;;;;;;17.13;6.68;;;11.40;99.90;;;11.75;100.00;100234.88;4996367;28;20050;-69
2024/04/02 07:04:50;;;;;;;13.15;5.95;;;11.50;99.90;;;11.86;100.00;100237.34;4996430;28;20072;-68
2024/04/02 07:07:16;;;;;;;17.95;6.35;;;11.60;99.90;;;11.91;99.37;100251.38;4996374;28;20410;-70
2024/04/02 07:09:45;;;;;;;13.85;5.60;;;11.60;99.90;;;11.85;99.16;100239.09;4996286;28;20045;-68
2024/04/02 07:12:11;;;;;;;17.73;6.20;;;11.60;99.90;;;11.92;99.20;100254.00;4996239;28;20049;-68
2024/04/02 07:14:39;;;;;;;21.42;6.57;;;11.60;99.90;;;11.93;98.63;100249.56;4996259;28;20050;-69
2024/04/02 07:17:05;;;;;;;18.35;6.40;;;11.60;99.90;;;12.00;98.48;100256.50;4995888;28;20120;-69
2024/04/02 07:19:33;;;;;;;14.95;6.53;;;11.70;99.90;;;12.04;98.57;100253.75;4995789;28;20118;-70
2024/04/02 07:21:59;;;;;;;20.10;6.80;;;11.70;99.90;;;12.13;98.66;100252.69;4996066;28;20053;-68
2024/04/02 07:24:26;;;;;;;19.45;6.40;;;11.80;99.90;;;12.02;97.88;100260.00;4995912;28;20041;-68
2024/04/02 07:26:54;;;;;;;19.90;6.75;;;11.80;99.90;;;12.04;98.11;100266.13;4995748;28;20041;-68
2024/04/02 07:29:21;;;;;;;20.17;6.50;;;11.70;99.90;;;12.07;98.20;100252.81;4995602;28;20041;-68
2024/04/02 07:31:48;;;;;;;17.27;6.00;;;11.80;99.90;;;12.16;98.48;100260.56;4995726;28;20049;-68
2024/04/02 07:34:15;;;;;;;16.23;6.35;;;11.90;99.90;;;12.14;98.21;100260.59;4995828;28;20065;-70
2024/04/02 07:36:44;;;;;;;19.25;6.68;;;11.90;99.90;;;12.12;97.34;100280.09;4995864;28;20117;-69
2024/04/02 07:39:11;;;;;;;15.05;6.35;;;11.90;99.90;;;12.13;96.77;100260.66;4995740;28;20057;-68
2024/04/02 07:41:37;;;;;;;16.90;6.78;;;11.80;99.90;;;12.27;96.52;100266.53;4995491;28;20046;-68
2024/04/02 07:44:06;;;;;;;13.93;5.88;;;12.00;99.90;;;12.43;96.10;100291.81;4995765;28;20053;-69
2024/04/02 07:46:33;;;;;;;17.10;6.30;;;12.10;99.90;;;12.54;96.08;100281.88;4995660;28;20096;-68
2024/04/02 07:49:00;;;;;;;19.40;6.93;;;12.20;99.90;;;12.81;95.53;100278.59;4995393;28;20133;-68
2024/04/02 07:51:26;;;;;;;20.65;6.97;;;12.50;99.90;;;12.92;94.16;100283.63;4995565;28;20510;-68
2024/04/02 07:53:54;;;;;;;13.57;5.97;;;12.60;99.90;;;13.08;92.90;100279.75;4995205;28;20050;-68
2024/04/02 07:56:21;;;;;;;18.25;6.85;;;12.80;99.90;;;13.28;92.16;100290.75;4995078;28;20042;-68
2024/04/02 07:58:49;;;;;;;20.85;6.97;;;13.00;99.90;;;13.46;91.94;100309.78;4995297;28;20402;-68
2024/04/02 08:01:17;;;;;;;18.63;6.40;;;13.10;99.90;;;13.61;90.09;100291.72;4995257;28;20137;-68
2024/04/02 08:03:44;;;;;;;19.48;6.03;;;13.30;99.90;;;13.86;88.88;100291.00;4995095;28;20187;-68
2024/04/02 08:06:11;;;;;;;16.33;6.07;;;13.60;99.90;;;14.10;88.14;100298.31;4995696;28;20053;-68
2024/04/02 08:08:38;;;;;;;15.80;6.30;;;13.80;99.90;;;14.25;86.25;100304.97;4995095;28;20521;-68
2024/04/02 08:11:04;;;;;;;16.15;5.78;;;14.00;99.90;;;14.36;83.87;100287.81;4994985;28;20034;-68
2024/04/02 08:13:32;;;;;;;15.52;5.72;;;14.10;99.90;;;14.20;83.48;100305.13;4995257;28;20490;-68
2024/04/02 08:15:58;;;;;;;12.90;5.05;;;14.00;99.90;;;14.02;82.07;100299.44;4978944;28;20053;-68
2024/04/02 08:18:27;;;;;;;12.57;5.35;;;13.80;99.90;;;13.79;82.42;100299.19;4978834;28;20057;-69
2024/04/02 08:20:53;;;;;;;14.48;5.45;;;13.60;99.90;;;13.59;83.54;100287.28;4995033;28;20114;-68
2024/04/02 08:23:20;;;;;;;13.48;5.20;;;13.40;99.90;;;13.39;84.18;100292.22;4995336;28;20393;-68
2024/04/02 08:25:47;;;;;;;13.75;5.85;;;13.20;99.90;;;13.38;85.08;100298.47;4994905;28;20095;-68
2024/04/02 08:28:14;;;;;;;14.35;6.25;;;13.10;99.90;;;13.28;85.98;100309.34;4994972;28;20438;-68
2024/04/02 08:30:41;;;;;;;14.50;6.10;;;13.00;99.90;;;13.33;86.49;100308.34;4993975;28;20046;-68
2024/04/02 08:33:08;;;;;;;18.73;6.07;;;13.00;99.90;;;13.28;86.98;100312.88;4994540;28;20057;-69
2024/04/02 08:35:36;;;;;;;17.75;6.88;;;13.00;99.90;;;13.21;87.55;100327.22;4995167;28;20046;-68
2024/04/02 08:38:04;;;;;;;18.42;6.68;;;12.90;99.90;;;13.18;88.37;100307.84;4994712;28;20038;-68
2024/04/02 08:40:32;;;;;;;16.35;6.95;;;12.90;99.90;;;13.30;88.94;100320.81;4978537;28;20411;-68
2024/04/02 08:43:05;;;;;;;18.45;5.78;;;12.90;99.90;;;13.08;88.72;100309.84;4994681;28;20116;-69
2024/04/02 08:45:32;;;;;;;14.95;5.65;;;12.80;99.90;;;12.58;89.32;100260.53;4995161;28;20046;-68
2024/04/02 08:48:00;;;;;;;20.10;5.90;;;12.70;99.90;;;12.89;90.23;100316.44;4994715;28;20100;-68
2024/04/02 08:50:26;;;;;;;19.33;6.15;;;12.60;99.90;;;12.84;90.23;100328.94;4994728;28;20050;-68
2024/04/02 08:52:55;;;;;;;15.75;6.30;;;12.60;99.90;;;12.89;91.24;100326.19;4994644;28;20046;-68
2024/04/02 08:55:22;;;;;;;19.67;6.65;;;12.60;99.90;;;12.81;92.01;100336.97;4994427;28;20406;-68
2024/04/02 08:57:52;;;;;;;13.27;5.13;;;12.60;99.90;;;12.69;93.98;100330.16;4994283;28;20382;-68
2024/04/02 09:00:20;;;;;;;;;;;12.40;99.90;;;12.59;94.70;100306.50;4994890;28;20125;-68
2024/04/02 09:02:48;;;;;;;18.65;6.40;;;12.40;99.90;;;12.68;95.65;100328.41;4994460;28;19932;-68
2024/04/02 09:05:14;;;;;;;19.70;5.93;;;12.40;99.90;;;12.72;96.14;100328.34;4994710;28;20104;-68
2024/04/02 09:07:42;;;;;;;18.38;6.18;;;12.40;99.90;;;12.64;95.62;100339.09;4994619;28;20502;-68
2024/04/02 09:10:09;;;;;;;14.07;6.47;;;12.30;99.90;;;12.56;95.53;100341.91;4994698;28;20049;-68
2024/04/02 09:12:39;;;;;;;17.60;6.22;;;12.30;99.90;;;12.64;95.80;100344.41;4994429;28;20046;-68
2024/04/02 09:15:07;;;;;;;15.25;6.40;;;12.30;99.90;;;12.60;95.11;100358.69;4994419;28;20050;-68
2024/04/02 09:17:34;;;;;;;18.58;6.68;;;12.30;99.90;;;12.51;95.20;100330.53;4994410;28;20050;-68
2024/04/02 09:20:01;;;;;;;17.25;6.68;;;12.20;99.90;;;12.56;95.68;100338.41;4994620;28;20065;-68
2024/04/02 09:22:28;;;;;;;13.63;6.07;;;12.20;99.90;;;12.53;95.51;100344.66;4994506;28;20096;-68
2024/04/02 09:24:54;;;;;;;14.52;6.72;;;12.20;99.90;;;12.41;96.29;100354.63;4994584;28;20398;-68
2024/04/02 09:27:23;;;;;;;18.08;7.43;;;12.20;99.90;;;12.32;97.81;100349.50;4994499;28;20100;-68
2024/04/02 09:29:51;;;;;;;17.98;7.75;;;12.00;99.90;;;12.35;99.31;100352.13;4994636;28;20088;-68
2024/04/02 09:32:19;;;;;;;18.10;7.60;;;12.10;99.90;;;12.39;100.00;100345.81;4994387;28;20042;-68
2024/04/02 09:34:46;;;;;;;16.50;7.00;;;12.10;99.90;;;12.35;99.51;100352.13;4993457;28;20053;-67
2024/04/02 09:37:26;;;;;;;15.18;6.95;;;12.00;99.90;;;12.36;100.00;100346.78;4992749;28;20046;-67
2024/04/02 09:39:53;;;;;;;12.18;6.07;;;12.00;99.90;;;12.40;100.00;100351.13;4993759;28;20384;-67
2024/04/02 09:42:23;;;;;;;15.18;6.10;;;12.10;99.90;;;12.53;100.00;100360.56;4995755;28;20054;-67
2024/04/02 09:44:51;;;;;;;17.85;6.88;;;12.20;99.90;;;12.54;100.00;100350.84;4996635;28;20045;-68
2024/04/02 09:47:20;;;;;;;14.68;6.20;;;12.20;99.90;;;12.52;99.58;100340.22;4996036;28;20041;-67
2024/04/02 09:49:47;;;;;;;17.83;5.90;;;12.20;99.90;;;12.43;99.57;100364.31;4979324;28;20069;-68
2024/04/02 09:52:15;;;;;;;19.15;6.90;;;12.20;99.90;;;12.50;99.31;100354.47;4995964;28;20049;-68
2024/04/02 09:54:43;;;;;;;14.75;6.50;;;12.20;99.90;;;12.61;98.97;100355.09;4995730;28;20088;-67
2024/04/02 09:57:12;;;;;;;17.92;6.60;;;12.30;99.90;;;12.57;99.41;100350.75;4995625;28;20046;-67
2024/04/02 09:59:41;;;;;;;16.45;6.80;;;12.30;99.90;;;12.51;98.61;100367.69;4995650;28;20080;-67
2024/04/02 10:02:14;;;;;;;12.75;6.50;;;12.30;99.90;;;12.53;98.05;100357.91;4995891;28;20038;-67
2024/04/02 10:04:41;;;;;;;15.98;7.25;;;12.30;99.90;;;12.46;98.22;100355.41;4996024;28;20046;-67
2024/04/02 10:07:21;;;;;;;13.07;6.25;;;12.30;99.90;;;12.58;97.63;100348.06;4995636;28;20178;-67
2024/04/02 10:09:56;;;;;;;16.13;6.55;;;12.30;99.90;;;12.56;98.64;100362.28;4995435;28;20045;-67